sensor_id;sensor_type;location;lat;lon;timestamp;temperature;humidity
52209;DHT22;38507;53.132;6.394;2023-11-21T00:00:49;9.70;99.90
52209;DHT22;38507;53.132;6.394;2023-11-21T00:03:15;9.30;99.90
52209;DHT22;38507;53.132;6.394;2023-11-21T00:05:43;9.70;99.90
52209;DHT22;38507;53.132;6.394;2023-11-21T00:08:09;9.30;99.90
52209;DHT22;38507;53.132;6.394;2023-11-21T00:10:36;9.40;99.90
52209;DHT22;38507;53.132;6.394;2023-11-21T00:13:03;9.30;99.90
52209;DHT22;38507;53.132;6.394;2023-11-21T00:15:29;9.30;99.90
52209;DHT22;38507;53.132;6.394;2023-11-21T00:17:55;9.30;99.90
52209;DHT22;38507;53.132;6.394;2023-11-21T00:20:20;9.60;99.90
52209;DHT22;38507;53.132;6.394;2023-11-21T00:22:46;9.30;99.90
52209;DHT22;38507;53.132;6.394;2023-11-21T00:25:13;9.30;99.90
52209;DHT22;38507;53.132;6.394;2023-11-21T00:27:41;9.30;99.90
52209;DHT22;38507;53.132;6.394;2023-11-21T00:30:07;9.30;99.90
52209;DHT22;38507;53.132;6.394;2023-11-21T00:32:35;9.30;99.90
52209;DHT22;38507;53.132;6.394;2023-11-21T00:35:01;9.30;99.90
52209;DHT22;38507;53.132;6.394;2023-11-21T00:37:27;9.70;99.90
52209;DHT22;38507;53.132;6.394;2023-11-21T00:39:52;9.30;99.90
52209;DHT22;38507;53.132;6.394;2023-11-21T00:42:18;9.30;99.90
52209;DHT22;38507;53.132;6.394;2023-11-21T00:44:44;9.30;99.90
52209;DHT22;38507;53.132;6.394;2023-11-21T00:47:09;9.30;99.90
52209;DHT22;38507;53.132;6.394;2023-11-21T00:49:35;9.30;99.90
52209;DHT22;38507;53.132;6.394;2023-11-21T00:52:01;9.40;99.90
52209;DHT22;38507;53.132;6.394;2023-11-21T00:54:27;9.30;99.90
52209;DHT22;38507;53.132;6.394;2023-11-21T00:56:53;9.30;99.90
52209;DHT22;38507;53.132;6.394;2023-11-21T00:59:19;9.30;99.90
52209;DHT22;38507;53.132;6.394;2023-11-21T01:01:44;9.30;99.90
52209;DHT22;38507;53.132;6.394;2023-11-21T01:04:10;9.30;99.90
52209;DHT22;38507;53.132;6.394;2023-11-21T01:06:36;9.30;99.90
52209;DHT22;38507;53.132;6.394;2023-11-21T01:09:01;9.30;99.90
52209;DHT22;38507;53.132;6.394;2023-11-21T01:11:36;9.30;99.90
52209;DHT22;38507;53.132;6.394;2023-11-21T01:14:04;9.20;99.90
52209;DHT22;38507;53.132;6.394;2023-11-21T01:16:30;9.40;99.90
52209;DHT22;38507;53.132;6.394;2023-11-21T01:18:58;9.50;99.90
52209;DHT22;38507;53.132;6.394;2023-11-21T01:21:25;9.70;99.90
52209;DHT22;38507;53.132;6.394;2023-11-21T01:23:50;9.30;99.90
52209;DHT22;38507;53.132;6.394;2023-11-21T01:26:16;9.30;99.90
52209;DHT22;38507;53.132;6.394;2023-11-21T01:28:41;9.30;99.90
52209;DHT22;38507;53.132;6.394;2023-11-21T01:31:07;9.30;99.90
52209;DHT22;38507;53.132;6.394;2023-11-21T01:33:33;9.30;99.90
52209;DHT22;38507;53.132;6.394;2023-11-21T01:35:58;9.70;99.90
52209;DHT22;38507;53.132;6.394;2023-11-21T01:38:25;9.30;99.90
52209;DHT22;38507;53.132;6.394;2023-11-21T01:40:52;9.20;99.90
52209;DHT22;38507;53.132;6.394;2023-11-21T01:43:17;9.90;99.90
52209;DHT22;38507;53.132;6.394;2023-11-21T01:45:43;9.60;99.90
52209;DHT22;38507;53.132;6.394;2023-11-21T01:48:10;9.30;99.90
52209;DHT22;38507;53.132;6.394;2023-11-21T01:50:38;9.30;99.90
52209;DHT22;38507;53.132;6.394;2023-11-21T01:53:03;9.80;99.90
52209;DHT22;38507;53.132;6.394;2023-11-21T01:55:29;9.60;99.90
52209;DHT22;38507;53.132;6.394;2023-11-21T01:57:56;9.30;99.90
52209;DHT22;38507;53.132;6.394;2023-11-21T02:00:25;9.30;99.90
52209;DHT22;38507;53.132;6.394;2023-11-21T02:02:53;9.30;99.90
52209;DHT22;38507;53.132;6.394;2023-11-21T02:05:19;9.20;99.90
52209;DHT22;38507;53.132;6.394;2023-11-21T02:07:47;9.60;99.90
52209;DHT22;38507;53.132;6.394;2023-11-21T02:10:18;9.30;99.90
52209;DHT22;38507;53.132;6.394;2023-11-21T02:12:48;9.30;99.90
52209;DHT22;38507;53.132;6.394;2023-11-21T02:15:16;9.50;99.90
52209;DHT22;38507;53.132;6.394;2023-11-21T02:17:52;9.30;99.90
52209;DHT22;38507;53.132;6.394;2023-11-21T02:20:20;9.30;99.90
52209;DHT22;38507;53.132;6.394;2023-11-21T02:22:50;9.40;99.90
52209;DHT22;38507;53.132;6.394;2023-11-21T02:25:30;9.30;99.90
52209;DHT22;38507;53.132;6.394;2023-11-21T02:27:57;9.30;99.90
52209;DHT22;38507;53.132;6.394;2023-11-21T02:30:23;9.30;99.90
52209;DHT22;38507;53.132;6.394;2023-11-21T02:32:50;9.30;99.90
52209;DHT22;38507;53.132;6.394;2023-11-21T02:35:18;9.40;99.90
52209;DHT22;38507;53.132;6.394;2023-11-21T02:37:47;9.30;99.90
52209;DHT22;38507;53.132;6.394;2023-11-21T02:40:12;9.40;99.90
52209;DHT22;38507;53.132;6.394;2023-11-21T02:42:39;9.40;99.90
52209;DHT22;38507;53.132;6.394;2023-11-21T02:45:07;9.30;99.90
52209;DHT22;38507;53.132;6.394;2023-11-21T02:47:33;9.40;99.90
52209;DHT22;38507;53.132;6.394;2023-11-21T02:49:59;9.40;99.90
52209;DHT22;38507;53.132;6.394;2023-11-21T02:52:24;9.30;99.90
52209;DHT22;38507;53.132;6.394;2023-11-21T02:54:50;9.70;99.90
52209;DHT22;38507;53.132;6.394;2023-11-21T02:57:16;10.00;99.90
52209;DHT22;38507;53.132;6.394;2023-11-21T02:59:42;9.70;99.90
52209;DHT22;38507;53.132;6.394;2023-11-21T03:02:08;9.30;99.90
52209;DHT22;38507;53.132;6.394;2023-11-21T03:04:34;9.40;99.90
52209;DHT22;38507;53.132;6.394;2023-11-21T03:07:00;9.30;99.90
52209;DHT22;38507;53.132;6.394;2023-11-21T03:09:26;9.70;99.90
52209;DHT22;38507;53.132;6.394;2023-11-21T03:11:55;9.40;99.90
52209;DHT22;38507;53.132;6.394;2023-11-21T03:14:21;9.40;99.90
52209;DHT22;38507;53.132;6.394;2023-11-21T03:16:48;9.40;99.90
52209;DHT22;38507;53.132;6.394;2023-11-21T03:19:14;9.40;99.90
52209;DHT22;38507;53.132;6.394;2023-11-21T03:21:40;9.40;99.90
52209;DHT22;38507;53.132;6.394;2023-11-21T03:24:06;9.50;99.90
52209;DHT22;38507;53.132;6.394;2023-11-21T03:26:33;9.50;99.90
52209;DHT22;38507;53.132;6.394;2023-11-21T03:28:58;9.80;99.90
52209;DHT22;38507;53.132;6.394;2023-11-21T03:31:24;9.40;99.90
52209;DHT22;38507;53.132;6.394;2023-11-21T03:33:50;9.70;99.90
52209;DHT22;38507;53.132;6.394;2023-11-21T03:36:15;9.50;99.90
52209;DHT22;38507;53.132;6.394;2023-11-21T03:38:41;9.70;99.90
52209;DHT22;38507;53.132;6.394;2023-11-21T03:41:07;9.40;99.90
52209;DHT22;38507;53.132;6.394;2023-11-21T03:43:38;9.60;99.90
52209;DHT22;38507;53.132;6.394;2023-11-21T03:46:04;9.50;99.90
52209;DHT22;38507;53.132;6.394;2023-11-21T03:48:30;9.40;99.90
52209;DHT22;38507;53.132;6.394;2023-11-21T03:50:56;9.40;99.90
52209;DHT22;38507;53.132;6.394;2023-11-21T03:53:21;9.50;99.90
52209;DHT22;38507;53.132;6.394;2023-11-21T03:55:47;9.50;99.90
52209;DHT22;38507;53.132;6.394;2023-11-21T03:58:12;9.70;99.90
52209;DHT22;38507;53.132;6.394;2023-11-21T04:00:39;9.40;99.90
52209;DHT22;38507;53.132;6.394;2023-11-21T04:03:04;9.40;99.90
52209;DHT22;38507;53.132;6.394;2023-11-21T04:05:30;9.40;99.90
52209;DHT22;38507;53.132;6.394;2023-11-21T04:07:56;9.40;99.90
52209;DHT22;38507;53.132;6.394;2023-11-21T04:10:22;9.40;99.90
52209;DHT22;38507;53.132;6.394;2023-11-21T04:12:47;9.30;99.90
52209;DHT22;38507;53.132;6.394;2023-11-21T04:15:14;9.30;99.90
52209;DHT22;38507;53.132;6.394;2023-11-21T04:17:40;9.90;99.90
52209;DHT22;38507;53.132;6.394;2023-11-21T04:20:06;9.30;99.90
52209;DHT22;38507;53.132;6.394;2023-11-21T04:22:37;9.30;99.90
52209;DHT22;38507;53.132;6.394;2023-11-21T04:25:10;9.80;99.90
52209;DHT22;38507;53.132;6.394;2023-11-21T04:27:38;9.40;99.90
52209;DHT22;38507;53.132;6.394;2023-11-21T04:30:04;9.60;99.90
52209;DHT22;38507;53.132;6.394;2023-11-21T04:32:30;9.40;99.90
52209;DHT22;38507;53.132;6.394;2023-11-21T04:34:56;9.40;99.90
52209;DHT22;38507;53.132;6.394;2023-11-21T04:37:21;9.30;99.90
52209;DHT22;38507;53.132;6.394;2023-11-21T04:39:48;9.40;99.90
52209;DHT22;38507;53.132;6.394;2023-11-21T04:42:13;9.50;99.90
52209;DHT22;38507;53.132;6.394;2023-11-21T04:44:39;9.60;99.90
52209;DHT22;38507;53.132;6.394;2023-11-21T04:47:06;9.50;99.90
52209;DHT22;38507;53.132;6.394;2023-11-21T04:49:33;9.60;99.90
52209;DHT22;38507;53.132;6.394;2023-11-21T04:51:59;9.40;99.90
52209;DHT22;38507;53.132;6.394;2023-11-21T04:54:24;9.60;99.90
52209;DHT22;38507;53.132;6.394;2023-11-21T04:56:50;9.40;99.90
52209;DHT22;38507;53.132;6.394;2023-11-21T04:59:15;9.30;99.90
52209;DHT22;38507;53.132;6.394;2023-11-21T05:01:41;9.20;99.90
52209;DHT22;38507;53.132;6.394;2023-11-21T05:04:07;9.80;99.90
52209;DHT22;38507;53.132;6.394;2023-11-21T05:06:34;9.40;99.90
52209;DHT22;38507;53.132;6.394;2023-11-21T05:09:00;9.30;99.90
52209;DHT22;38507;53.132;6.394;2023-11-21T05:11:26;9.50;99.90
52209;DHT22;38507;53.132;6.394;2023-11-21T05:13:52;9.40;99.90
52209;DHT22;38507;53.132;6.394;2023-11-21T05:16:19;9.90;99.90
52209;DHT22;38507;53.132;6.394;2023-11-21T05:18:45;9.90;99.90
52209;DHT22;38507;53.132;6.394;2023-11-21T05:21:11;9.90;99.90
52209;DHT22;38507;53.132;6.394;2023-11-21T05:23:37;9.40;99.90
52209;DHT22;38507;53.132;6.394;2023-11-21T05:26:03;9.40;99.90
52209;DHT22;38507;53.132;6.394;2023-11-21T05:28:28;9.40;99.90
52209;DHT22;38507;53.132;6.394;2023-11-21T05:30:54;9.30;99.90
52209;DHT22;38507;53.132;6.394;2023-11-21T05:33:20;9.40;99.90
52209;DHT22;38507;53.132;6.394;2023-11-21T05:35:46;9.40;99.90
52209;DHT22;38507;53.132;6.394;2023-11-21T05:38:14;9.40;99.90
52209;DHT22;38507;53.132;6.394;2023-11-21T05:40:40;9.80;99.90
52209;DHT22;38507;53.132;6.394;2023-11-21T05:43:06;9.40;99.90
52209;DHT22;38507;53.132;6.394;2023-11-21T05:45:32;9.30;99.90
52209;DHT22;38507;53.132;6.394;2023-11-21T05:47:58;10.00;99.90
52209;DHT22;38507;53.132;6.394;2023-11-21T05:50:24;9.40;99.90
52209;DHT22;38507;53.132;6.394;2023-11-21T05:52:49;9.70;99.90
52209;DHT22;38507;53.132;6.394;2023-11-21T05:55:15;9.30;99.90
52209;DHT22;38507;53.132;6.394;2023-11-21T05:57:42;9.50;99.90
52209;DHT22;38507;53.132;6.394;2023-11-21T06:00:10;9.30;99.90
52209;DHT22;38507;53.132;6.394;2023-11-21T06:02:39;9.30;99.90
52209;DHT22;38507;53.132;6.394;2023-11-21T06:05:07;9.30;99.90
52209;DHT22;38507;53.132;6.394;2023-11-21T06:07:33;9.30;99.90
52209;DHT22;38507;53.132;6.394;2023-11-21T06:09:59;9.40;99.90
52209;DHT22;38507;53.132;6.394;2023-11-21T06:12:24;9.80;99.90
52209;DHT22;38507;53.132;6.394;2023-11-21T06:14:50;9.30;99.90
52209;DHT22;38507;53.132;6.394;2023-11-21T06:17:16;9.20;99.90
52209;DHT22;38507;53.132;6.394;2023-11-21T06:19:43;9.20;99.90
52209;DHT22;38507;53.132;6.394;2023-11-21T06:22:11;9.20;99.90
52209;DHT22;38507;53.132;6.394;2023-11-21T06:24:37;9.20;99.90
52209;DHT22;38507;53.132;6.394;2023-11-21T06:27:05;9.80;99.90
52209;DHT22;38507;53.132;6.394;2023-11-21T06:29:31;9.30;99.90
52209;DHT22;38507;53.132;6.394;2023-11-21T06:31:57;9.30;99.90
52209;DHT22;38507;53.132;6.394;2023-11-21T06:34:23;9.30;99.90
52209;DHT22;38507;53.132;6.394;2023-11-21T06:36:49;9.30;99.90
52209;DHT22;38507;53.132;6.394;2023-11-21T06:39:15;9.20;99.90
52209;DHT22;38507;53.132;6.394;2023-11-21T06:41:42;9.50;99.90
52209;DHT22;38507;53.132;6.394;2023-11-21T06:44:08;9.20;99.90
52209;DHT22;38507;53.132;6.394;2023-11-21T06:46:34;9.20;99.90
52209;DHT22;38507;53.132;6.394;2023-11-21T06:49:00;9.30;99.90
52209;DHT22;38507;53.132;6.394;2023-11-21T06:51:25;9.50;99.90
52209;DHT22;38507;53.132;6.394;2023-11-21T06:53:51;9.60;99.90
52209;DHT22;38507;53.132;6.394;2023-11-21T06:56:17;9.30;99.90
52209;DHT22;38507;53.132;6.394;2023-11-21T06:58:45;9.20;99.90
52209;DHT22;38507;53.132;6.394;2023-11-21T07:01:12;9.20;99.90
52209;DHT22;38507;53.132;6.394;2023-11-21T07:03:37;9.20;99.90
52209;DHT22;38507;53.132;6.394;2023-11-21T07:06:04;9.50;99.90
52209;DHT22;38507;53.132;6.394;2023-11-21T07:08:30;9.20;99.90
52209;DHT22;38507;53.132;6.394;2023-11-21T07:10:55;9.20;99.90
52209;DHT22;38507;53.132;6.394;2023-11-21T07:13:21;9.10;99.90
52209;DHT22;38507;53.132;6.394;2023-11-21T07:15:47;9.20;99.90
52209;DHT22;38507;53.132;6.394;2023-11-21T07:18:13;9.40;99.90
52209;DHT22;38507;53.132;6.394;2023-11-21T07:20:39;9.20;99.90
52209;DHT22;38507;53.132;6.394;2023-11-21T07:23:05;9.10;99.90
52209;DHT22;38507;53.132;6.394;2023-11-21T07:25:31;9.10;99.90
52209;DHT22;38507;53.132;6.394;2023-11-21T07:27:57;9.10;99.90
52209;DHT22;38507;53.132;6.394;2023-11-21T07:30:23;9.10;99.90
52209;DHT22;38507;53.132;6.394;2023-11-21T07:32:49;9.10;99.90
52209;DHT22;38507;53.132;6.394;2023-11-21T07:35:14;9.10;99.90
52209;DHT22;38507;53.132;6.394;2023-11-21T07:37:40;9.10;99.90
52209;DHT22;38507;53.132;6.394;2023-11-21T07:40:06;9.40;99.90
52209;DHT22;38507;53.132;6.394;2023-11-21T07:42:34;9.00;99.90
52209;DHT22;38507;53.132;6.394;2023-11-21T07:45:00;9.00;99.90
52209;DHT22;38507;53.132;6.394;2023-11-21T07:47:25;9.00;99.90
52209;DHT22;38507;53.132;6.394;2023-11-21T07:49:53;9.10;99.90
52209;DHT22;38507;53.132;6.394;2023-11-21T07:52:21;9.10;99.90
52209;DHT22;38507;53.132;6.394;2023-11-21T07:54:47;9.00;99.90
52209;DHT22;38507;53.132;6.394;2023-11-21T07:57:13;9.00;99.90
52209;DHT22;38507;53.132;6.394;2023-11-21T07:59:40;9.00;99.90
52209;DHT22;38507;53.132;6.394;2023-11-21T08:02:06;8.90;99.90
52209;DHT22;38507;53.132;6.394;2023-11-21T08:04:32;9.00;99.90
52209;DHT22;38507;53.132;6.394;2023-11-21T08:06:58;9.00;99.90
52209;DHT22;38507;53.132;6.394;2023-11-21T08:09:24;9.00;99.90
52209;DHT22;38507;53.132;6.394;2023-11-21T08:11:49;9.10;99.90
52209;DHT22;38507;53.132;6.394;2023-11-21T08:14:16;8.90;99.90
52209;DHT22;38507;53.132;6.394;2023-11-21T08:16:42;8.90;99.90
52209;DHT22;38507;53.132;6.394;2023-11-21T08:19:08;9.40;99.90
52209;DHT22;38507;53.132;6.394;2023-11-21T08:21:34;8.90;99.90
52209;DHT22;38507;53.132;6.394;2023-11-21T08:24:02;9.30;99.90
52209;DHT22;38507;53.132;6.394;2023-11-21T08:26:30;8.90;99.90
52209;DHT22;38507;53.132;6.394;2023-11-21T08:28:55;8.80;99.90
52209;DHT22;38507;53.132;6.394;2023-11-21T08:31:25;9.20;99.90
52209;DHT22;38507;53.132;6.394;2023-11-21T08:33:51;8.80;99.90
52209;DHT22;38507;53.132;6.394;2023-11-21T08:36:17;8.80;99.90
52209;DHT22;38507;53.132;6.394;2023-11-21T08:38:42;8.70;99.90
52209;DHT22;38507;53.132;6.394;2023-11-21T08:41:08;8.80;99.90
52209;DHT22;38507;53.132;6.394;2023-11-21T08:43:35;8.70;99.90
52209;DHT22;38507;53.132;6.394;2023-11-21T08:46:01;8.70;99.90
52209;DHT22;38507;53.132;6.394;2023-11-21T08:48:26;9.20;99.90
52209;DHT22;38507;53.132;6.394;2023-11-21T08:50:53;8.70;99.90
52209;DHT22;38507;53.132;6.394;2023-11-21T08:53:19;8.60;99.90
52209;DHT22;38507;53.132;6.394;2023-11-21T08:55:45;8.70;99.90
52209;DHT22;38507;53.132;6.394;2023-11-21T08:58:11;8.70;99.90
52209;DHT22;38507;53.132;6.394;2023-11-21T09:00:39;8.70;99.90
52209;DHT22;38507;53.132;6.394;2023-11-21T09:03:05;8.70;99.90
52209;DHT22;38507;53.132;6.394;2023-11-21T09:05:37;8.70;99.90
52209;DHT22;38507;53.132;6.394;2023-11-21T09:08:02;8.70;99.90
52209;DHT22;38507;53.132;6.394;2023-11-21T09:10:28;8.70;99.90
52209;DHT22;38507;53.132;6.394;2023-11-21T09:12:54;8.60;99.90
52209;DHT22;38507;53.132;6.394;2023-11-21T09:15:19;9.00;99.90
52209;DHT22;38507;53.132;6.394;2023-11-21T09:17:45;8.90;99.90
52209;DHT22;38507;53.132;6.394;2023-11-21T09:20:11;9.20;99.90
52209;DHT22;38507;53.132;6.394;2023-11-21T09:22:37;8.70;99.90
52209;DHT22;38507;53.132;6.394;2023-11-21T09:25:02;8.60;99.90
52209;DHT22;38507;53.132;6.394;2023-11-21T09:27:31;8.60;99.90
52209;DHT22;38507;53.132;6.394;2023-11-21T09:29:57;8.90;99.90
52209;DHT22;38507;53.132;6.394;2023-11-21T09:32:23;8.60;99.90
52209;DHT22;38507;53.132;6.394;2023-11-21T09:34:50;9.10;99.90
52209;DHT22;38507;53.132;6.394;2023-11-21T09:37:16;8.50;99.90
52209;DHT22;38507;53.132;6.394;2023-11-21T09:39:42;8.60;99.90
52209;DHT22;38507;53.132;6.394;2023-11-21T09:42:18;8.60;99.90
52209;DHT22;38507;53.132;6.394;2023-11-21T09:44:50;8.70;99.90
52209;DHT22;38507;53.132;6.394;2023-11-21T09:47:22;8.70;99.90
52209;DHT22;38507;53.132;6.394;2023-11-21T09:49:48;8.60;99.90
52209;DHT22;38507;53.132;6.394;2023-11-21T09:52:25;9.10;99.90
52209;DHT22;38507;53.132;6.394;2023-11-21T09:54:52;8.60;99.90
52209;DHT22;38507;53.132;6.394;2023-11-21T09:57:23;8.80;99.90
52209;DHT22;38507;53.132;6.394;2023-11-21T09:59:52;8.50;99.90
52209;DHT22;38507;53.132;6.394;2023-11-21T10:02:28;8.50;99.90
52209;DHT22;38507;53.132;6.394;2023-11-21T10:04:59;8.50;99.90
52209;DHT22;38507;53.132;6.394;2023-11-21T10:07:26;8.50;99.90
52209;DHT22;38507;53.132;6.394;2023-11-21T10:09:54;9.10;99.90
52209;DHT22;38507;53.132;6.394;2023-11-21T10:12:21;8.50;99.90
52209;DHT22;38507;53.132;6.394;2023-11-21T10:14:49;8.50;99.90
52209;DHT22;38507;53.132;6.394;2023-11-21T10:17:19;8.50;99.90
52209;DHT22;38507;53.132;6.394;2023-11-21T10:19:49;8.50;99.90
52209;DHT22;38507;53.132;6.394;2023-11-21T10:22:15;8.50;99.90
52209;DHT22;38507;53.132;6.394;2023-11-21T10:24:41;8.70;99.90
52209;DHT22;38507;53.132;6.394;2023-11-21T10:27:09;8.50;99.90
52209;DHT22;38507;53.132;6.394;2023-11-21T10:29:34;8.70;99.90
52209;DHT22;38507;53.132;6.394;2023-11-21T10:32:04;8.80;99.90
52209;DHT22;38507;53.132;6.394;2023-11-21T10:34:31;8.50;99.90
52209;DHT22;38507;53.132;6.394;2023-11-21T10:36:56;8.50;99.90
52209;DHT22;38507;53.132;6.394;2023-11-21T10:39:24;8.50;99.90
52209;DHT22;38507;53.132;6.394;2023-11-21T10:41:54;8.50;99.90
52209;DHT22;38507;53.132;6.394;2023-11-21T10:44:20;8.50;99.90
52209;DHT22;38507;53.132;6.394;2023-11-21T10:46:51;8.50;99.90
52209;DHT22;38507;53.132;6.394;2023-11-21T10:49:26;8.50;99.90
52209;DHT22;38507;53.132;6.394;2023-11-21T10:51:55;8.60;99.90
52209;DHT22;38507;53.132;6.394;2023-11-21T10:54:22;8.60;99.90
52209;DHT22;38507;53.132;6.394;2023-11-21T10:56:57;8.60;99.90
52209;DHT22;38507;53.132;6.394;2023-11-21T10:59:28;8.60;99.90
52209;DHT22;38507;53.132;6.394;2023-11-21T11:01:54;8.60;99.90
52209;DHT22;38507;53.132;6.394;2023-11-21T11:04:23;8.60;99.90
52209;DHT22;38507;53.132;6.394;2023-11-21T11:07:10;8.60;99.90
52209;DHT22;38507;53.132;6.394;2023-11-21T11:09:37;8.60;99.90
52209;DHT22;38507;53.132;6.394;2023-11-21T11:12:03;8.60;99.90
52209;DHT22;38507;53.132;6.394;2023-11-21T11:14:30;8.60;99.90
52209;DHT22;38507;53.132;6.394;2023-11-21T11:16:58;8.60;99.90
52209;DHT22;38507;53.132;6.394;2023-11-21T11:19:25;8.80;99.90
52209;DHT22;38507;53.132;6.394;2023-11-21T11:22:19;8.50;99.90
52209;DHT22;38507;53.132;6.394;2023-11-21T11:28:01;8.60;99.90
52209;DHT22;38507;53.132;6.394;2023-11-21T11:33:39;8.60;99.90
52209;DHT22;38507;53.132;6.394;2023-11-21T11:36:25;8.60;99.90
52209;DHT22;38507;53.132;6.394;2023-11-21T11:38:51;8.60;99.90
52209;DHT22;38507;53.132;6.394;2023-11-21T11:41:25;8.60;99.90
52209;DHT22;38507;53.132;6.394;2023-11-21T11:43:53;8.70;99.90
52209;DHT22;38507;53.132;6.394;2023-11-21T11:46:18;8.80;99.90
52209;DHT22;38507;53.132;6.394;2023-11-21T11:48:48;8.90;99.90
52209;DHT22;38507;53.132;6.394;2023-11-21T11:51:15;8.90;99.90
52209;DHT22;38507;53.132;6.394;2023-11-21T11:53:46;9.40;99.90
52209;DHT22;38507;53.132;6.394;2023-11-21T11:58:53;9.10;99.90
52209;DHT22;38507;53.132;6.394;2023-11-21T12:01:20;9.30;99.90
52209;DHT22;38507;53.132;6.394;2023-11-21T12:06:42;9.60;99.90
52209;DHT22;38507;53.132;6.394;2023-11-21T12:09:18;10.10;99.90
52209;DHT22;38507;53.132;6.394;2023-11-21T12:11:44;9.90;99.90
52209;DHT22;38507;53.132;6.394;2023-11-21T12:14:10;9.80;99.90
52209;DHT22;38507;53.132;6.394;2023-11-21T12:16:35;9.90;99.90
52209;DHT22;38507;53.132;6.394;2023-11-21T12:19:02;9.80;99.90
52209;DHT22;38507;53.132;6.394;2023-11-21T12:21:28;9.70;99.90
52209;DHT22;38507;53.132;6.394;2023-11-21T12:23:55;10.00;99.90
52209;DHT22;38507;53.132;6.394;2023-11-21T12:26:24;10.00;99.90
52209;DHT22;38507;53.132;6.394;2023-11-21T12:28:53;10.10;99.90
52209;DHT22;38507;53.132;6.394;2023-11-21T12:31:25;10.40;99.90
52209;DHT22;38507;53.132;6.394;2023-11-21T12:33:50;10.70;99.90
52209;DHT22;38507;53.132;6.394;2023-11-21T12:36:16;10.40;99.90
52209;DHT22;38507;53.132;6.394;2023-11-21T12:38:42;10.50;99.90
52209;DHT22;38507;53.132;6.394;2023-11-21T12:41:09;10.30;99.90
52209;DHT22;38507;53.132;6.394;2023-11-21T12:43:35;10.20;99.90
52209;DHT22;38507;53.132;6.394;2023-11-21T12:46:06;10.40;99.90
52209;DHT22;38507;53.132;6.394;2023-11-21T12:48:32;10.60;99.90
52209;DHT22;38507;53.132;6.394;2023-11-21T12:50:58;10.70;99.90
52209;DHT22;38507;53.132;6.394;2023-11-21T12:53:26;11.20;99.90
52209;DHT22;38507;53.132;6.394;2023-11-21T12:55:51;10.60;99.90
52209;DHT22;38507;53.132;6.394;2023-11-21T12:58:22;10.80;99.90
52209;DHT22;38507;53.132;6.394;2023-11-21T13:00:50;10.70;99.90
52209;DHT22;38507;53.132;6.394;2023-11-21T13:03:19;11.20;99.90
52209;DHT22;38507;53.132;6.394;2023-11-21T13:05:51;10.60;99.90
52209;DHT22;38507;53.132;6.394;2023-11-21T13:08:19;11.00;99.90
52209;DHT22;38507;53.132;6.394;2023-11-21T13:10:49;10.70;99.90
52209;DHT22;38507;53.132;6.394;2023-11-21T13:13:15;10.80;99.90
52209;DHT22;38507;53.132;6.394;2023-11-21T13:15:51;11.10;99.90
52209;DHT22;38507;53.132;6.394;2023-11-21T13:18:18;10.80;99.90
52209;DHT22;38507;53.132;6.394;2023-11-21T13:20:44;10.70;99.90
52209;DHT22;38507;53.132;6.394;2023-11-21T13:23:10;10.70;99.90
52209;DHT22;38507;53.132;6.394;2023-11-21T13:25:42;10.60;99.90
52209;DHT22;38507;53.132;6.394;2023-11-21T13:28:08;11.00;99.90
52209;DHT22;38507;53.132;6.394;2023-11-21T13:30:35;11.00;99.90
52209;DHT22;38507;53.132;6.394;2023-11-21T13:33:04;10.90;99.90
52209;DHT22;38507;53.132;6.394;2023-11-21T13:35:38;10.80;99.90
52209;DHT22;38507;53.132;6.394;2023-11-21T13:38:08;10.90;99.90
52209;DHT22;38507;53.132;6.394;2023-11-21T13:40:36;10.60;99.90
52209;DHT22;38507;53.132;6.394;2023-11-21T13:43:11;10.80;99.90
52209;DHT22;38507;53.132;6.394;2023-11-21T13:45:37;10.70;99.90
52209;DHT22;38507;53.132;6.394;2023-11-21T13:48:05;10.30;99.90
52209;DHT22;38507;53.132;6.394;2023-11-21T13:50:41;10.20;99.90
52209;DHT22;38507;53.132;6.394;2023-11-21T13:53:20;10.10;99.90
52209;DHT22;38507;53.132;6.394;2023-11-21T13:55:53;10.20;99.90
52209;DHT22;38507;53.132;6.394;2023-11-21T13:58:26;9.90;99.90
52209;DHT22;38507;53.132;6.394;2023-11-21T14:01:07;9.90;99.90
52209;DHT22;38507;53.132;6.394;2023-11-21T14:03:42;9.80;99.90
52209;DHT22;38507;53.132;6.394;2023-11-21T14:06:17;9.70;99.90
52209;DHT22;38507;53.132;6.394;2023-11-21T14:08:50;9.80;99.90
52209;DHT22;38507;53.132;6.394;2023-11-21T14:11:16;9.60;99.90
52209;DHT22;38507;53.132;6.394;2023-11-21T14:13:45;9.90;99.90
52209;DHT22;38507;53.132;6.394;2023-11-21T14:16:14;9.50;99.90
52209;DHT22;38507;53.132;6.394;2023-11-21T14:18:42;9.40;99.90
52209;DHT22;38507;53.132;6.394;2023-11-21T14:21:21;9.70;99.90
52209;DHT22;38507;53.132;6.394;2023-11-21T14:23:47;9.80;99.90
52209;DHT22;38507;53.132;6.394;2023-11-21T14:26:13;9.50;99.90
52209;DHT22;38507;53.132;6.394;2023-11-21T14:28:41;9.20;99.90
52209;DHT22;38507;53.132;6.394;2023-11-21T14:31:07;9.60;99.90
52209;DHT22;38507;53.132;6.394;2023-11-21T14:33:33;9.40;99.90
52209;DHT22;38507;53.132;6.394;2023-11-21T14:35:59;9.20;99.90
52209;DHT22;38507;53.132;6.394;2023-11-21T14:38:24;9.30;99.90
52209;DHT22;38507;53.132;6.394;2023-11-21T14:40:50;9.10;99.90
52209;DHT22;38507;53.132;6.394;2023-11-21T14:43:15;9.40;99.90
52209;DHT22;38507;53.132;6.394;2023-11-21T14:45:42;9.00;99.90
52209;DHT22;38507;53.132;6.394;2023-11-21T14:48:08;9.20;99.90
52209;DHT22;38507;53.132;6.394;2023-11-21T14:50:41;8.90;99.90
52209;DHT22;38507;53.132;6.394;2023-11-21T14:53:08;8.90;99.90
52209;DHT22;38507;53.132;6.394;2023-11-21T14:55:35;8.90;99.90
52209;DHT22;38507;53.132;6.394;2023-11-21T14:58:06;8.80;99.90
52209;DHT22;38507;53.132;6.394;2023-11-21T15:00:36;8.70;99.90
52209;DHT22;38507;53.132;6.394;2023-11-21T15:03:02;8.80;99.90
52209;DHT22;38507;53.132;6.394;2023-11-21T15:05:29;8.60;99.90
52209;DHT22;38507;53.132;6.394;2023-11-21T15:07:55;8.60;99.90
52209;DHT22;38507;53.132;6.394;2023-11-21T15:10:24;9.30;99.90
52209;DHT22;38507;53.132;6.394;2023-11-21T15:13:11;8.60;99.90
52209;DHT22;38507;53.132;6.394;2023-11-21T15:15:37;8.50;99.90
52209;DHT22;38507;53.132;6.394;2023-11-21T15:18:03;8.50;99.90
52209;DHT22;38507;53.132;6.394;2023-11-21T15:20:29;8.60;99.90
52209;DHT22;38507;53.132;6.394;2023-11-21T15:22:55;8.40;99.90
52209;DHT22;38507;53.132;6.394;2023-11-21T15:25:21;8.90;99.90
52209;DHT22;38507;53.132;6.394;2023-11-21T15:27:47;9.00;99.90
52209;DHT22;38507;53.132;6.394;2023-11-21T15:30:16;8.80;99.90
52209;DHT22;38507;53.132;6.394;2023-11-21T15:32:44;8.30;99.90
52209;DHT22;38507;53.132;6.394;2023-11-21T15:35:10;8.30;99.90
52209;DHT22;38507;53.132;6.394;2023-11-21T15:37:39;8.20;99.90
52209;DHT22;38507;53.132;6.394;2023-11-21T15:40:05;8.20;99.90
52209;DHT22;38507;53.132;6.394;2023-11-21T15:42:31;8.20;99.90
52209;DHT22;38507;53.132;6.394;2023-11-21T15:44:57;8.10;99.90
52209;DHT22;38507;53.132;6.394;2023-11-21T15:47:22;8.10;99.90
52209;DHT22;38507;53.132;6.394;2023-11-21T15:49:48;8.10;99.90
52209;DHT22;38507;53.132;6.394;2023-11-21T15:52:14;8.60;99.90
52209;DHT22;38507;53.132;6.394;2023-11-21T15:54:40;8.00;99.90
52209;DHT22;38507;53.132;6.394;2023-11-21T15:57:06;8.00;99.90